createdAt,value
2023-01-17T00:00:14.725Z,6.13
2023-01-17T00:04:46.380Z,5.68
2023-01-17T00:09:21.511Z,5.90
2023-01-17T00:13:33.872Z,6.35
2023-01-17T00:17:47.466Z,6.03
2023-01-17T00:22:17.983Z,6.00
2023-01-17T00:30:43.904Z,7.68
2023-01-17T00:34:56.125Z,7.10
2023-01-17T00:39:08.344Z,6.35
2023-01-17T00:43:41.510Z,6.82
2023-01-17T00:48:12.229Z,6.95
2023-01-17T00:52:43.029Z,6.35
2023-01-17T00:57:14.055Z,7.38
2023-01-17T01:01:44.856Z,7.00
2023-01-17T01:06:15.751Z,6.45
2023-01-17T01:10:46.728Z,6.45
2023-01-17T01:15:17.408Z,6.95
2023-01-17T01:19:48.128Z,6.93
2023-01-17T01:24:18.592Z,7.00
2023-01-17T01:33:20.339Z,4.60
2023-01-17T01:37:32.698Z,4.80
2023-01-17T01:41:45.023Z,4.75
2023-01-17T01:45:58.999Z,5.95
2023-01-17T01:50:13.318Z,5.15
2023-01-17T01:54:52.231Z,6.05
2023-01-17T01:59:07.426Z,4.82
2023-01-17T02:03:26.241Z,4.30
2023-01-17T02:07:45.281Z,5.53
2023-01-17T02:11:57.893Z,5.13
2023-01-17T02:16:17.123Z,4.75
2023-01-17T02:20:58.924Z,5.18
2023-01-17T02:25:20.248Z,5.20
2023-01-17T02:30:00.488Z,5.53
2023-01-17T02:35:02.176Z,5.28
2023-01-17T02:43:31.835Z,4.88
2023-01-17T02:47:44.294Z,4.95
2023-01-17T02:52:18.008Z,5.35
2023-01-17T02:57:07.155Z,5.22
2023-01-17T03:01:58.432Z,6.30
2023-01-17T03:10:26.777Z,6.32
2023-01-17T03:14:39.158Z,5.78
2023-01-17T03:18:51.662Z,5.05
2023-01-17T03:23:03.986Z,6.25
2023-01-17T03:27:16.438Z,5.88
2023-01-17T03:31:28.756Z,6.00
2023-01-17T03:35:41.078Z,6.30
2023-01-17T03:39:53.568Z,6.20
2023-01-17T03:44:06.032Z,6.13
2023-01-17T03:48:18.959Z,6.45
2023-01-17T03:52:31.373Z,6.50
2023-01-17T03:56:43.701Z,6.18
2023-01-17T04:00:55.971Z,5.72
2023-01-17T04:05:08.851Z,5.80
2023-01-17T04:09:21.115Z,6.15
2023-01-17T04:13:33.581Z,5.93
2023-01-17T04:17:45.817Z,5.60
2023-01-17T04:21:58.135Z,5.53
2023-01-17T04:26:12.483Z,5.30
2023-01-17T04:30:25.048Z,5.97
2023-01-17T04:34:37.354Z,6.00
2023-01-17T04:38:49.712Z,6.03
2023-01-17T04:43:02.035Z,5.72
2023-01-17T04:47:14.310Z,5.88
2023-01-17T04:51:26.615Z,6.10
2023-01-17T04:55:38.938Z,5.38
2023-01-17T04:59:51.464Z,5.78
2023-01-17T05:04:03.821Z,5.35
2023-01-17T05:08:16.272Z,5.75
2023-01-17T05:12:29.028Z,5.35
2023-01-17T05:16:41.369Z,6.40
2023-01-17T05:20:53.734Z,5.22
2023-01-17T05:25:06.472Z,5.80
2023-01-17T05:29:18.803Z,5.05
2023-01-17T05:33:31.147Z,6.15
2023-01-17T05:37:49.369Z,5.45
2023-01-17T05:42:01.679Z,5.40
2023-01-17T05:46:13.987Z,6.60
2023-01-17T05:50:28.706Z,6.20
2023-01-17T05:54:40.902Z,5.82
2023-01-17T05:58:53.141Z,6.07
2023-01-17T06:03:05.906Z,6.85
2023-01-17T06:07:18.314Z,5.75
2023-01-17T06:11:30.523Z,6.47
2023-01-17T06:15:43.032Z,5.90
2023-01-17T06:19:55.362Z,5.90
2023-01-17T06:24:07.829Z,6.32
2023-01-17T06:28:22.051Z,5.57
2023-01-17T06:32:34.464Z,5.95
2023-01-17T06:36:46.820Z,6.10
2023-01-17T06:41:00.692Z,5.53
2023-01-17T06:45:13.275Z,5.97
2023-01-17T06:49:25.605Z,5.10
2023-01-17T06:53:38.046Z,5.60
2023-01-17T06:57:50.933Z,5.15
2023-01-17T07:02:03.317Z,5.88
2023-01-17T07:06:15.721Z,4.93
2023-01-17T07:10:28.094Z,6.20
2023-01-17T07:14:40.436Z,5.15
2023-01-17T07:18:57.187Z,5.30
2023-01-17T07:23:09.548Z,5.25
2023-01-17T07:27:21.876Z,4.90
2023-01-17T07:31:36.900Z,5.63
2023-01-17T07:35:49.174Z,4.35
2023-01-17T07:40:02.750Z,4.15
2023-01-17T07:44:15.016Z,4.35
2023-01-17T07:48:27.500Z,5.18
2023-01-17T07:52:39.823Z,4.68
2023-01-17T07:56:53.320Z,5.05
2023-01-17T08:01:10.731Z,3.50
2023-01-17T08:05:23.512Z,3.97
2023-01-17T08:09:35.844Z,3.58
2023-01-17T08:13:48.893Z,3.20
2023-01-17T08:18:01.224Z,3.20
2023-01-17T08:22:13.669Z,3.03
2023-01-17T08:26:25.890Z,2.83
2023-01-17T08:30:38.475Z,2.63
2023-01-17T08:34:50.865Z,2.78
2023-01-17T08:39:03.230Z,2.83
2023-01-17T08:43:15.774Z,2.47
2023-01-17T08:47:28.290Z,3.10
2023-01-17T08:51:41.357Z,2.83
2023-01-17T08:56:01.400Z,1.92
2023-01-17T09:00:14.195Z,2.60
2023-01-17T09:04:26.770Z,2.30
2023-01-17T09:08:42.006Z,1.88
2023-01-17T09:12:54.402Z,1.88
2023-01-17T09:17:07.351Z,2.15
2023-01-17T09:21:20.046Z,2.10
2023-01-17T09:25:32.440Z,2.28
2023-01-17T09:29:44.794Z,2.50
2023-01-17T09:33:59.076Z,2.45
2023-01-17T09:38:12.073Z,2.50
2023-01-17T09:42:36.480Z,2.30
2023-01-17T09:46:50.490Z,2.00
2023-01-17T09:51:16.238Z,2.38
2023-01-17T09:55:37.746Z,2.70
2023-01-17T10:00:04.898Z,2.38
2023-01-17T10:04:41.612Z,2.72
2023-01-17T10:09:16.468Z,2.45
2023-01-17T10:13:50.477Z,2.60
2023-01-17T10:18:29.861Z,2.55
2023-01-17T10:22:43.441Z,2.50
2023-01-17T10:26:58.590Z,2.55
2023-01-17T10:31:19.543Z,2.30
2023-01-17T10:35:37.306Z,2.95
2023-01-17T10:39:52.995Z,2.30
2023-01-17T10:44:17.158Z,2.58
2023-01-17T10:48:39.003Z,2.72
2023-01-17T10:53:31.316Z,2.40
2023-01-17T10:57:49.355Z,2.63
2023-01-17T11:02:07.704Z,2.60
2023-01-17T11:06:27.678Z,2.88
2023-01-17T11:10:43.679Z,3.38
2023-01-17T11:15:11.210Z,2.45
2023-01-17T11:19:30.775Z,3.30
2023-01-17T11:23:46.193Z,2.63
2023-01-17T11:28:02.876Z,2.97
2023-01-17T11:32:29.744Z,2.80
2023-01-17T11:36:42.472Z,3.30
2023-01-17T11:41:14.801Z,2.47
2023-01-17T11:45:30.209Z,2.80
2023-01-17T11:49:48.310Z,3.00
2023-01-17T11:54:09.534Z,2.30
2023-01-17T11:58:24.333Z,2.58
2023-01-17T12:03:10.727Z,2.50
2023-01-17T12:08:01.725Z,2.40
2023-01-17T12:12:55.049Z,2.60
2023-01-17T12:17:19.889Z,2.83
2023-01-17T12:21:50.870Z,2.97
2023-01-17T12:26:26.108Z,2.70
2023-01-17T12:31:07.470Z,3.00
2023-01-17T12:35:27.319Z,3.35
2023-01-17T12:39:54.741Z,2.88
2023-01-17T12:44:17.153Z,3.65
2023-01-17T12:48:36.341Z,4.07
2023-01-17T12:53:10.942Z,4.27
2023-01-17T12:57:32.373Z,4.65
2023-01-17T13:01:57.962Z,4.30
2023-01-17T13:06:22.530Z,4.32
2023-01-17T13:10:57.351Z,4.20
2023-01-17T13:15:29.284Z,3.78
2023-01-17T13:19:57.981Z,3.80
2023-01-17T13:24:23.055Z,3.83
2023-01-17T13:29:21.266Z,3.83
2023-01-17T13:34:20.168Z,2.90
2023-01-17T13:38:55.089Z,3.45
2023-01-17T13:43:19.063Z,4.32
2023-01-17T13:47:37.587Z,3.45
2023-01-17T13:52:02.181Z,3.83
2023-01-17T13:56:27.468Z,3.95
2023-01-17T14:00:45.712Z,3.08
2023-01-17T14:05:16.247Z,3.22
2023-01-17T14:13:52.125Z,3.45
2023-01-17T14:18:07.697Z,4.35
2023-01-17T14:22:24.279Z,4.60
2023-01-17T14:26:44.036Z,4.50
2023-01-17T14:30:58.267Z,4.07
2023-01-17T14:35:22.529Z,3.83
2023-01-17T14:39:44.558Z,4.10
2023-01-17T14:44:00.245Z,4.35
2023-01-17T14:48:19.960Z,4.05
2023-01-17T14:52:32.341Z,4.30
2023-01-17T14:56:45.008Z,4.50
2023-01-17T15:01:01.456Z,4.75
2023-01-17T15:05:16.333Z,4.47
2023-01-17T15:09:38.510Z,5.00
2023-01-17T15:13:55.156Z,4.80
2023-01-17T15:18:27.002Z,3.67
2023-01-17T15:22:39.529Z,3.45
2023-01-17T15:26:52.553Z,3.08
2023-01-17T15:31:20.448Z,3.42
2023-01-17T15:35:32.885Z,3.13
2023-01-17T15:39:49.895Z,3.10
2023-01-17T15:44:03.108Z,3.65
2023-01-17T15:48:42.046Z,4.05
2023-01-17T15:53:05.041Z,3.72
2023-01-17T15:57:25.000Z,4.03
2023-01-17T16:06:29.664Z,3.80
2023-01-17T16:10:44.081Z,3.25
2023-01-17T16:15:11.228Z,4.38
2023-01-17T16:19:24.870Z,2.80
2023-01-17T16:23:37.223Z,3.00
2023-01-17T16:27:50.333Z,3.47
2023-01-17T16:32:08.946Z,3.28
2023-01-17T16:36:23.195Z,3.30
2023-01-17T16:40:41.559Z,2.65
2023-01-17T16:44:54.063Z,3.42
2023-01-17T16:49:06.383Z,3.40
2023-01-17T16:53:31.781Z,3.75
2023-01-17T16:57:44.891Z,3.20
2023-01-17T17:01:58.766Z,3.70
2023-01-17T17:06:11.844Z,3.00
2023-01-17T17:10:27.934Z,3.38
2023-01-17T17:14:43.561Z,3.90
2023-01-17T17:19:07.067Z,3.63
2023-01-17T17:23:19.384Z,3.25
2023-01-17T17:27:31.966Z,3.50
2023-01-17T17:31:44.446Z,3.15
2023-01-17T17:36:03.127Z,3.80
2023-01-17T17:40:15.994Z,3.35
2023-01-17T17:44:28.612Z,3.17
2023-01-17T17:48:40.983Z,3.47
2023-01-17T17:52:53.363Z,4.05
2023-01-17T17:57:05.817Z,4.22
2023-01-17T18:01:18.289Z,3.50
2023-01-17T18:05:30.829Z,4.15
2023-01-17T18:09:43.618Z,3.67
2023-01-17T18:13:59.394Z,3.67
2023-01-17T18:18:11.914Z,3.85
2023-01-17T18:22:24.669Z,4.13
2023-01-17T18:26:38.623Z,3.35
2023-01-17T18:30:51.091Z,3.72
2023-01-17T18:35:04.231Z,3.13
2023-01-17T18:39:20.091Z,3.83
2023-01-17T18:43:32.823Z,4.00
2023-01-17T18:47:45.278Z,4.03
2023-01-17T18:51:57.720Z,4.60
2023-01-17T18:56:12.830Z,4.03
2023-01-17T19:00:25.186Z,4.05
2023-01-17T19:04:38.698Z,4.32
2023-01-17T19:08:54.260Z,4.95
2023-01-17T19:13:06.775Z,4.35
2023-01-17T19:17:19.236Z,4.85
2023-01-17T19:22:31.004Z,5.57
2023-01-17T19:27:42.371Z,5.20
2023-01-17T19:32:56.276Z,6.15
2023-01-17T19:38:07.314Z,5.55
2023-01-17T19:43:18.454Z,5.78
2023-01-17T19:48:29.894Z,4.68
2023-01-17T19:53:41.502Z,4.90
2023-01-17T19:58:52.657Z,4.88
2023-01-17T20:04:04.041Z,4.70
2023-01-17T20:09:14.996Z,4.23
2023-01-17T20:14:26.006Z,4.60
2023-01-17T20:19:37.027Z,4.57
2023-01-17T20:24:48.644Z,8.20
2023-01-17T20:30:11.118Z,5.68
2023-01-17T20:35:29.726Z,4.93
2023-01-17T20:40:41.363Z,4.93
2023-01-17T20:45:56.112Z,7.13
2023-01-17T20:51:10.769Z,5.55
2023-01-17T20:56:21.865Z,4.32
2023-01-17T21:01:34.662Z,4.15
2023-01-17T21:06:45.731Z,3.80
2023-01-17T21:12:01.635Z,3.13
2023-01-17T21:17:16.377Z,4.22
2023-01-17T21:22:29.784Z,3.15
2023-01-17T21:27:40.649Z,3.75
2023-01-17T21:32:51.537Z,4.07
2023-01-17T21:38:02.554Z,3.65
2023-01-17T21:48:26.974Z,3.83
2023-01-17T21:53:38.895Z,3.40
2023-01-17T21:58:54.019Z,2.72
2023-01-17T22:04:05.042Z,3.33
2023-01-17T22:09:15.984Z,3.03
2023-01-17T22:14:29.605Z,3.33
2023-01-17T22:19:41.344Z,2.60
2023-01-17T22:24:54.295Z,2.60
2023-01-17T22:30:05.692Z,2.13
2023-01-17T22:35:16.614Z,2.50
2023-01-17T22:40:28.139Z,2.50
2023-01-17T22:45:39.111Z,3.03
2023-01-17T22:50:50.055Z,2.65
2023-01-17T22:56:05.437Z,2.28
2023-01-17T23:01:17.404Z,2.80
2023-01-17T23:06:30.799Z,2.72
2023-01-17T23:11:43.556Z,2.88
2023-01-17T23:17:14.427Z,2.40
2023-01-17T23:22:27.233Z,2.72
2023-01-17T23:28:00.628Z,3.45
2023-01-17T23:33:13.227Z,3.50
2023-01-17T23:38:31.024Z,2.42
2023-01-17T23:43:41.920Z,2.22
2023-01-17T23:48:53.170Z,2.65
2023-01-17T23:54:05.696Z,2.37
2023-01-17T23:59:17.134Z,2.83
